createdAt,value
2022-09-07T00:00:55.778Z,966.0500
2022-09-07T00:01:57.994Z,966.0500
2022-09-07T00:03:00.394Z,966.0100
2022-09-07T00:06:42.154Z,965.9100
2022-09-07T00:07:44.287Z,965.8900
2022-09-07T00:08:46.470Z,965.8900
2022-09-07T00:09:48.640Z,965.8800
2022-09-07T00:10:50.814Z,965.9100
2022-09-07T00:11:53.047Z,965.9100
2022-09-07T00:12:55.259Z,965.9500
2022-09-07T00:13:55.346Z,965.9700
2022-09-07T00:14:57.532Z,966.0100
2022-09-07T00:15:59.758Z,966.0300
2022-09-07T00:17:01.937Z,966.0100
2022-09-07T00:18:04.100Z,966.0300
2022-09-07T00:19:06.231Z,966.0100
2022-09-07T00:20:08.376Z,965.9900
2022-09-07T00:21:10.558Z,966.0300
2022-09-07T00:22:12.798Z,966.0300
2022-09-07T00:23:14.991Z,966.0300
2022-09-07T00:24:17.209Z,966.0300
2022-09-07T00:25:19.416Z,966.0300
2022-09-07T00:26:21.571Z,966.0100
2022-09-07T00:27:23.785Z,966.0100
2022-09-07T00:28:26.064Z,965.9900
2022-09-07T00:29:28.159Z,966.0100
2022-09-07T00:30:30.351Z,965.9900
2022-09-07T00:31:32.592Z,965.9900
2022-09-07T00:32:34.753Z,965.9500
2022-09-07T00:33:36.954Z,965.9500
2022-09-07T00:34:39.168Z,965.9500
2022-09-07T00:35:41.376Z,965.9100
2022-09-07T00:36:43.592Z,965.9300
2022-09-07T00:37:45.842Z,965.9300
2022-09-07T00:38:48.069Z,965.9300
2022-09-07T00:39:50.374Z,965.9500
2022-09-07T00:40:52.648Z,965.9500
2022-09-07T00:41:54.924Z,965.9700
2022-09-07T00:42:55.072Z,965.9900
2022-09-07T00:43:57.318Z,965.9700
2022-09-07T00:44:59.586Z,965.9900
2022-09-07T00:46:01.993Z,966.0100
2022-09-07T00:47:02.020Z,966.0300
2022-09-07T00:48:04.215Z,966.0300
2022-09-07T00:49:06.427Z,966.0500
2022-09-07T00:50:08.693Z,966.0500
2022-09-07T00:51:10.962Z,966.0900
2022-09-07T00:52:13.196Z,966.1300
2022-09-07T00:53:15.433Z,966.1500
2022-09-07T00:54:17.599Z,966.1500
2022-09-07T00:55:19.821Z,966.1700
2022-09-07T00:56:22.013Z,966.1700
2022-09-07T00:57:24.280Z,966.1900
2022-09-07T00:58:26.705Z,966.1900
2022-09-07T00:59:28.855Z,966.1500
2022-09-07T01:00:31.114Z,966.1300
2022-09-07T01:01:33.511Z,966.1100
2022-09-07T01:02:35.731Z,966.1100
2022-09-07T01:03:35.685Z,966.1100
2022-09-07T01:04:37.930Z,966.0300
2022-09-07T01:05:40.116Z,966.0100
2022-09-07T01:06:42.298Z,965.9500
2022-09-07T01:07:44.485Z,965.8800
2022-09-07T01:08:46.708Z,965.8800
2022-09-07T01:09:48.875Z,965.8800
2022-09-07T01:10:51.052Z,965.8900
2022-09-07T01:11:53.264Z,965.9300
2022-09-07T01:12:55.493Z,965.9300
2022-09-07T01:13:55.598Z,965.9100
2022-09-07T01:14:57.839Z,965.8600
2022-09-07T01:16:00.176Z,965.8000
2022-09-07T01:17:02.368Z,965.8200
2022-09-07T01:18:02.500Z,965.8900
2022-09-07T01:19:04.780Z,965.9500
2022-09-07T01:20:07.022Z,965.9300
2022-09-07T01:21:09.259Z,965.8900
2022-09-07T01:22:11.515Z,965.8900
2022-09-07T01:23:13.771Z,965.9100
2022-09-07T01:24:16.061Z,965.8900
2022-09-07T01:25:18.316Z,965.9100
2022-09-07T01:26:18.411Z,965.9100
2022-09-07T01:27:20.678Z,965.9700
2022-09-07T01:28:22.926Z,965.9500
2022-09-07T01:29:25.213Z,965.9500
2022-09-07T01:30:27.461Z,965.9300
2022-09-07T01:31:29.786Z,965.9300
2022-09-07T01:32:31.945Z,965.9300
2022-09-07T01:33:34.146Z,965.9300
2022-09-07T01:34:36.384Z,965.9100
2022-09-07T01:35:38.570Z,965.8800
2022-09-07T01:36:40.827Z,965.8900
2022-09-07T01:37:43.066Z,965.8900
2022-09-07T01:38:45.291Z,965.8900
2022-09-07T01:39:47.677Z,965.8600
2022-09-07T01:40:49.801Z,965.8400
2022-09-07T01:41:52.019Z,965.8200
2022-09-07T01:42:54.201Z,965.8600
2022-09-07T01:43:56.375Z,965.8400
2022-09-07T01:44:58.631Z,965.8400
2022-09-07T01:46:00.869Z,965.8200
2022-09-07T01:47:03.040Z,965.8200
2022-09-07T01:48:03.132Z,965.8400
2022-09-07T01:49:05.348Z,965.8800
2022-09-07T01:50:07.613Z,965.8800
2022-09-07T01:51:09.833Z,965.8800
2022-09-07T01:52:12.075Z,965.8600
2022-09-07T01:53:14.320Z,965.8800
2022-09-07T01:54:16.585Z,965.8600
2022-09-07T01:55:18.843Z,965.8900
2022-09-07T01:56:21.030Z,965.8900
2022-09-07T01:57:23.225Z,965.9300
2022-09-07T01:58:25.550Z,965.8900
2022-09-07T01:59:27.633Z,965.9100
2022-09-07T02:03:18.237Z,965.9700
2022-09-07T02:04:20.423Z,965.9500
2022-09-07T02:05:22.645Z,965.9500
2022-09-07T02:06:24.890Z,965.9700
2022-09-07T02:07:27.141Z,965.9500
2022-09-07T02:08:29.461Z,965.9700
2022-09-07T02:09:31.644Z,965.9700
2022-09-07T02:10:33.878Z,965.9700
2022-09-07T02:11:36.104Z,965.9700
2022-09-07T02:12:38.363Z,966.0300
2022-09-07T02:13:40.622Z,966.0300
2022-09-07T02:14:42.856Z,966.0500
2022-09-07T02:15:45.173Z,966.0300
2022-09-07T02:16:45.207Z,966.0100
2022-09-07T02:17:47.412Z,966.0100
2022-09-07T02:18:49.672Z,966.0100
2022-09-07T02:19:51.843Z,966.0500
2022-09-07T02:20:54.056Z,966.0500
2022-09-07T02:21:56.268Z,966.0900
2022-09-07T02:22:58.460Z,966.0700
2022-09-07T02:24:00.679Z,966.0500
2022-09-07T02:25:02.874Z,966.0500
2022-09-07T02:26:05.073Z,966.0700
2022-09-07T02:27:05.146Z,966.0700
2022-09-07T02:28:07.360Z,966.0500
2022-09-07T02:29:09.580Z,966.0700
2022-09-07T02:30:11.786Z,966.0100
2022-09-07T02:31:14.013Z,966.0100
2022-09-07T02:32:14.049Z,966.0500
2022-09-07T02:33:16.262Z,966.1100
2022-09-07T02:34:18.538Z,966.0900
2022-09-07T02:35:20.753Z,966.0900
2022-09-07T02:36:22.977Z,966.0900
2022-09-07T02:37:25.212Z,966.1100
2022-09-07T02:38:27.487Z,966.1300
2022-09-07T02:39:29.709Z,966.1500
2022-09-07T02:40:31.830Z,966.1700
2022-09-07T02:41:34.025Z,966.1700
2022-09-07T02:42:36.237Z,966.1700
2022-09-07T02:43:38.441Z,966.1500
2022-09-07T02:44:40.662Z,966.1500
2022-09-07T02:45:42.838Z,966.1900
2022-09-07T02:46:45.198Z,966.1900
2022-09-07T02:47:47.262Z,966.1900
2022-09-07T02:48:49.461Z,966.2100
2022-09-07T02:49:51.661Z,966.2100
2022-09-07T02:50:53.841Z,966.2100
2022-09-07T02:51:56.005Z,966.2100
2022-09-07T02:52:58.190Z,966.1700
2022-09-07T02:54:00.381Z,966.1700
2022-09-07T02:55:02.617Z,966.1700
2022-09-07T02:56:04.743Z,966.1100
2022-09-07T02:57:06.921Z,966.1300
2022-09-07T02:58:09.054Z,966.1100
2022-09-07T02:59:11.245Z,966.0900
2022-09-07T03:00:13.487Z,966.1100
2022-09-07T03:01:15.670Z,966.0900
2022-09-07T03:02:15.720Z,966.1300
2022-09-07T03:03:17.796Z,966.1300
2022-09-07T03:04:19.993Z,966.1500
2022-09-07T03:05:22.219Z,966.1900
2022-09-07T03:06:24.381Z,966.2100
2022-09-07T03:07:26.593Z,966.1700
2022-09-07T03:08:28.926Z,966.2100
2022-09-07T03:09:31.061Z,966.2100
2022-09-07T03:10:33.333Z,966.2100
2022-09-07T03:11:35.523Z,966.2100
2022-09-07T03:12:37.740Z,966.2500
2022-09-07T03:13:39.949Z,966.2900
2022-09-07T03:14:42.181Z,966.2900
2022-09-07T03:15:44.480Z,966.2700
2022-09-07T03:16:44.500Z,966.2500
2022-09-07T03:17:46.710Z,966.2100
2022-09-07T03:18:48.898Z,966.1900
2022-09-07T03:19:51.066Z,966.1700
2022-09-07T03:20:53.282Z,966.1900
2022-09-07T03:21:55.394Z,966.2300
2022-09-07T03:22:57.559Z,966.2900
2022-09-07T03:23:59.710Z,966.2700
2022-09-07T03:25:01.849Z,966.2700
2022-09-07T03:26:04.031Z,966.3100
2022-09-07T03:27:06.164Z,966.2900
2022-09-07T03:28:08.297Z,966.2900
2022-09-07T03:29:10.384Z,966.2700
2022-09-07T03:30:12.469Z,966.2500
2022-09-07T03:31:14.677Z,966.2500
2022-09-07T03:32:16.722Z,966.2500
2022-09-07T03:33:18.849Z,966.2700
2022-09-07T03:34:20.942Z,966.2700
2022-09-07T03:35:23.039Z,966.2700
2022-09-07T03:36:25.146Z,966.2500
2022-09-07T03:37:27.224Z,966.2100
2022-09-07T03:38:29.394Z,966.2100
2022-09-07T03:39:31.586Z,966.2300
2022-09-07T03:40:33.631Z,966.2500
2022-09-07T03:41:35.801Z,966.2500
2022-09-07T03:42:37.930Z,966.2500
2022-09-07T03:43:40.068Z,966.2700
2022-09-07T03:44:42.189Z,966.2700
2022-09-07T03:45:44.365Z,966.2500
2022-09-07T03:46:46.493Z,966.2500
2022-09-07T03:47:48.635Z,966.2300
2022-09-07T03:48:50.829Z,966.2100
2022-09-07T03:49:52.966Z,966.2500
2022-09-07T03:50:55.140Z,966.2700
2022-09-07T03:51:57.384Z,966.2900
2022-09-07T03:52:59.558Z,966.3300
2022-09-07T03:54:01.770Z,966.3500
2022-09-07T03:55:03.948Z,966.3100
2022-09-07T03:56:03.997Z,966.3300
2022-09-07T03:57:06.201Z,966.3100
2022-09-07T03:58:08.378Z,966.3300
2022-09-07T03:59:10.582Z,966.3100
2022-09-07T04:00:12.791Z,966.3300
2022-09-07T04:01:01.754Z,966.3300
2022-09-07T04:02:02.370Z,966.3100
2022-09-07T04:03:04.563Z,966.2900
2022-09-07T04:04:06.747Z,966.3100
2022-09-07T04:05:11.076Z,966.3300
2022-09-07T04:06:06.837Z,966.3800
2022-09-07T04:07:09.046Z,966.3800
2022-09-07T04:08:09.199Z,966.3600
2022-09-07T04:09:11.422Z,966.3800
2022-09-07T04:10:11.496Z,966.3800
2022-09-07T04:11:13.709Z,966.4400
2022-09-07T04:12:15.918Z,966.4400
2022-09-07T04:13:18.193Z,966.4200
2022-09-07T04:14:20.392Z,966.4200
2022-09-07T04:15:22.616Z,966.4400
2022-09-07T04:16:24.866Z,966.4600
2022-09-07T04:17:27.084Z,966.4400
2022-09-07T04:18:29.369Z,966.4200
2022-09-07T04:19:31.526Z,966.4400
2022-09-07T04:20:33.768Z,966.4200
2022-09-07T04:21:36.004Z,966.4400
2022-09-07T04:22:36.048Z,966.4600
2022-09-07T04:23:38.270Z,966.4600
2022-09-07T04:24:40.432Z,966.4600
2022-09-07T04:25:42.630Z,966.5000
2022-09-07T04:26:46.791Z,966.4800
2022-09-07T04:27:48.876Z,966.5000
2022-09-07T04:28:51.001Z,966.5000
2022-09-07T04:29:53.036Z,966.5000
2022-09-07T04:30:55.240Z,966.5200
2022-09-07T04:31:57.252Z,966.5200
2022-09-07T04:32:59.332Z,966.5200
2022-09-07T04:34:01.453Z,966.4600
2022-09-07T04:35:03.495Z,966.4600
2022-09-07T04:36:03.446Z,966.4400
2022-09-07T04:37:05.528Z,966.4200
2022-09-07T04:38:07.704Z,966.4000
2022-09-07T04:39:07.776Z,966.4200
2022-09-07T04:40:09.968Z,966.3500
2022-09-07T04:41:12.091Z,966.3300
2022-09-07T04:42:13.205Z,966.3300
2022-09-07T04:42:37.923Z,966.3100
2022-09-07T04:43:40.107Z,966.3100
2022-09-07T04:44:42.300Z,966.3100
2022-09-07T04:45:44.488Z,966.3500
2022-09-07T04:46:44.506Z,966.4000
2022-09-07T04:47:46.735Z,966.4000
2022-09-07T04:48:48.978Z,966.4200
2022-09-07T04:49:51.254Z,966.4000
2022-09-07T04:50:53.461Z,966.4400
2022-09-07T04:51:55.698Z,966.4400
2022-09-07T04:52:57.942Z,966.4400
2022-09-07T04:54:00.199Z,966.5000
2022-09-07T04:55:02.444Z,966.5000
2022-09-07T04:56:04.636Z,966.4800
2022-09-07T04:57:06.888Z,966.5000
2022-09-07T04:58:06.979Z,966.5000
2022-09-07T04:59:09.231Z,966.4600
2022-09-07T05:00:11.520Z,966.4400
2022-09-07T05:01:13.899Z,966.4000
2022-09-07T05:02:16.143Z,966.4000
2022-09-07T05:03:18.389Z,966.4000
2022-09-07T05:04:20.652Z,966.4000
2022-09-07T05:05:22.972Z,966.4200
2022-09-07T05:06:23.107Z,966.4600
2022-09-07T05:07:25.408Z,966.4600
2022-09-07T05:08:27.696Z,966.4600
2022-09-07T05:09:29.991Z,966.4200
2022-09-07T05:10:32.329Z,966.4800
2022-09-07T05:11:34.643Z,966.4800
2022-09-07T05:12:34.822Z,966.5200
2022-09-07T05:13:37.155Z,966.5000
2022-09-07T05:14:39.486Z,966.5200
2022-09-07T05:15:41.864Z,966.5400
2022-09-07T05:16:44.207Z,966.5200
2022-09-07T05:17:44.352Z,966.5600
2022-09-07T05:18:46.678Z,966.5000
2022-09-07T05:19:48.948Z,966.5400
2022-09-07T05:20:51.288Z,966.5000
2022-09-07T05:21:53.591Z,966.5400
2022-09-07T05:22:55.886Z,966.5600
2022-09-07T05:23:56.022Z,966.5600
2022-09-07T05:24:58.337Z,966.6200
2022-09-07T05:26:00.634Z,966.6000
2022-09-07T05:27:02.938Z,966.6200
2022-09-07T05:28:05.194Z,966.6400
2022-09-07T05:31:36.280Z,966.6600
2022-09-07T05:34:38.203Z,966.6600
2022-09-07T05:35:40.413Z,966.6400
2022-09-07T05:36:42.688Z,966.6800
2022-09-07T05:37:44.934Z,966.6800
2022-09-07T05:38:47.213Z,966.6800
2022-09-07T05:39:49.558Z,966.6800
2022-09-07T05:40:51.686Z,966.6800
2022-09-07T05:41:53.925Z,966.6800
2022-09-07T05:42:56.103Z,966.7000
2022-09-07T05:45:00.580Z,966.7000
2022-09-07T05:46:00.723Z,966.6800
2022-09-07T05:47:02.932Z,966.7000
2022-09-07T05:48:05.153Z,966.7000
2022-09-07T05:49:07.351Z,966.7000
2022-09-07T05:50:09.520Z,966.7000
2022-09-07T05:51:11.744Z,966.6800
2022-09-07T05:52:13.997Z,966.7200
2022-09-07T05:53:16.244Z,966.6800
2022-09-07T05:54:18.502Z,966.7000
2022-09-07T05:55:29.958Z,966.7000
2022-09-07T05:56:22.959Z,966.7000
2022-09-07T05:57:25.207Z,966.6600
2022-09-07T05:58:25.306Z,966.6600
2022-09-07T05:59:27.461Z,966.6400
2022-09-07T06:00:29.648Z,966.6200
2022-09-07T06:01:31.863Z,966.6000
2022-09-07T06:02:38.993Z,966.6000
2022-09-07T06:03:36.258Z,966.5800
2022-09-07T06:04:40.549Z,966.5400
2022-09-07T06:05:40.600Z,966.5600
2022-09-07T06:06:47.769Z,966.5400
2022-09-07T06:07:45.145Z,966.5400
2022-09-07T06:08:47.315Z,966.5200
2022-09-07T06:10:49.650Z,966.4800
2022-09-07T06:11:51.831Z,966.4800
2022-09-07T06:12:54.096Z,966.4400
2022-09-07T06:13:56.244Z,966.4400
2022-09-07T06:14:58.466Z,966.4400
2022-09-07T06:16:00.664Z,966.4600
2022-09-07T06:17:02.926Z,966.4400
2022-09-07T06:18:05.220Z,966.4400
2022-09-07T06:19:07.404Z,966.4600
2022-09-07T06:20:09.606Z,966.4600
2022-09-07T06:21:11.881Z,966.4600
2022-09-07T06:22:14.107Z,966.4600
2022-09-07T06:23:16.369Z,966.4600
2022-09-07T06:24:16.442Z,966.5000
2022-09-07T06:25:18.710Z,966.5000
2022-09-07T06:26:20.909Z,966.5400
2022-09-07T06:27:23.149Z,966.5800
2022-09-07T06:28:25.421Z,966.5800
2022-09-07T06:29:27.563Z,966.5800
2022-09-07T06:30:29.798Z,966.5800
2022-09-07T06:31:32.130Z,966.5600
2022-09-07T06:32:49.634Z,966.6000
2022-09-07T06:33:36.568Z,966.6000
2022-09-07T06:34:38.716Z,966.6400
2022-09-07T06:35:38.790Z,966.6400
2022-09-07T06:36:40.967Z,966.6600
2022-09-07T06:37:43.133Z,966.6800
2022-09-07T06:37:47.468Z,966.6600
2022-09-07T06:38:49.660Z,966.6600
2022-09-07T06:39:51.951Z,966.6800
2022-09-07T06:43:58.669Z,966.7200
2022-09-07T06:45:00.785Z,966.7200
2022-09-07T06:47:05.287Z,966.7800
2022-09-07T06:48:07.418Z,966.8000
2022-09-07T06:49:09.631Z,966.7800
2022-09-07T06:50:09.694Z,966.8000
2022-09-07T06:51:11.924Z,966.8000
2022-09-07T06:52:14.168Z,966.8000
2022-09-07T06:55:20.824Z,966.7400
2022-09-07T06:56:23.016Z,966.7600
2022-09-07T06:57:25.227Z,966.7400
2022-09-07T06:58:27.458Z,966.7800
2022-09-07T06:59:29.667Z,966.7600
2022-09-07T07:00:31.899Z,966.7400
2022-09-07T07:01:34.126Z,966.7400
2022-09-07T07:02:36.355Z,966.7600
2022-09-07T07:03:36.508Z,966.7400
2022-09-07T07:04:41.194Z,966.7400
2022-09-07T07:05:40.967Z,966.7200
2022-09-07T07:06:43.267Z,966.7200
2022-09-07T07:07:45.496Z,966.7400
2022-09-07T07:08:47.714Z,966.7200
2022-09-07T07:09:49.957Z,966.7000
2022-09-07T07:10:52.113Z,966.6600
2022-09-07T07:11:54.326Z,966.6800
2022-09-07T07:12:56.500Z,966.6800
2022-09-07T07:13:58.707Z,966.6600
2022-09-07T07:15:00.954Z,966.6800
2022-09-07T07:16:01.102Z,966.7000
2022-09-07T07:17:03.279Z,966.7200
2022-09-07T07:18:20.306Z,966.7200
2022-09-07T07:19:07.686Z,966.7600
2022-09-07T07:20:09.869Z,966.7400
2022-09-07T07:21:12.094Z,966.7400
2022-09-07T07:22:42.662Z,966.7600
2022-09-07T07:23:16.623Z,966.7400
2022-09-07T07:24:18.897Z,966.8000
2022-09-07T07:25:21.178Z,966.8000
2022-09-07T07:26:21.261Z,966.8200
2022-09-07T07:27:23.536Z,966.8200
2022-09-07T07:29:28.438Z,966.8300
2022-09-07T07:30:30.385Z,966.8300
2022-09-07T07:31:32.640Z,966.8700
2022-09-07T07:32:34.912Z,966.8700
2022-09-07T07:33:38.196Z,966.8900
2022-09-07T07:34:37.387Z,966.8900
2022-09-07T07:35:39.645Z,966.9100
2022-09-07T07:36:41.905Z,966.8700
2022-09-07T07:37:44.187Z,966.9100
2022-09-07T07:39:02.503Z,966.8900
2022-09-07T07:41:53.720Z,966.8500
2022-09-07T07:42:55.388Z,966.8500
2022-09-07T07:43:55.410Z,966.8500
2022-09-07T07:46:02.499Z,966.9100
2022-09-07T07:47:02.237Z,966.9100
2022-09-07T07:48:04.461Z,966.9300
2022-09-07T07:49:06.728Z,966.8900
2022-09-07T07:51:12.095Z,966.9300
2022-09-07T07:54:17.776Z,966.9700
2022-09-07T07:55:49.276Z,966.9700
2022-09-07T07:56:22.263Z,967.0500
2022-09-07T07:57:24.457Z,967.0900
2022-09-07T07:58:26.702Z,967.0500
2022-09-07T07:59:28.984Z,967.0500
2022-09-07T08:00:50.774Z,967.0500
2022-09-07T08:01:31.383Z,967.0900
2022-09-07T08:02:33.490Z,967.0500
2022-09-07T08:03:35.633Z,967.0500
2022-09-07T08:04:35.765Z,966.9700
2022-09-07T08:05:37.996Z,967.0500
2022-09-07T08:06:40.248Z,967.0700
2022-09-07T08:07:42.451Z,967.0700
2022-09-07T08:08:44.672Z,967.0900
2022-09-07T08:09:46.905Z,967.0500
2022-09-07T08:10:49.143Z,967.0900
2022-09-07T08:11:51.424Z,967.0700
2022-09-07T08:12:53.640Z,967.0500
2022-09-07T08:13:55.894Z,967.0500
2022-09-07T08:14:56.005Z,966.9700
2022-09-07T08:15:58.287Z,966.9700
2022-09-07T08:17:00.509Z,966.9500
2022-09-07T08:18:02.745Z,966.9100
2022-09-07T08:19:04.994Z,966.9100
2022-09-07T08:20:07.289Z,966.9100
2022-09-07T08:21:09.554Z,966.8700
2022-09-07T08:22:11.837Z,966.8700
2022-09-07T08:23:14.136Z,966.8700
2022-09-07T08:24:14.277Z,966.8700
2022-09-07T08:25:16.599Z,966.8700
2022-09-07T08:26:18.876Z,966.8500
2022-09-07T08:27:21.179Z,966.8500
2022-09-07T08:28:23.513Z,966.8500
2022-09-07T08:29:23.631Z,966.8700
2022-09-07T08:30:25.958Z,966.8300
2022-09-07T08:31:28.248Z,966.8300
2022-09-07T08:32:30.478Z,966.8300
2022-09-07T08:33:32.977Z,966.8300
2022-09-07T08:34:35.035Z,966.8200
2022-09-07T08:35:37.323Z,966.8200
2022-09-07T08:36:39.524Z,966.8300
2022-09-07T08:37:39.666Z,966.8200
2022-09-07T08:38:41.873Z,966.8300
2022-09-07T08:39:44.177Z,966.8300
2022-09-07T08:40:46.341Z,966.8300
2022-09-07T08:41:48.546Z,966.8700
2022-09-07T08:42:50.732Z,966.8500
2022-09-07T08:43:52.907Z,966.8200
2022-09-07T08:44:55.096Z,966.8200
2022-09-07T08:45:57.298Z,966.8300
2022-09-07T08:46:59.490Z,966.8500
2022-09-07T08:48:01.666Z,966.8700
2022-09-07T08:49:03.841Z,966.9100
2022-09-07T08:50:06.026Z,966.8900
2022-09-07T08:51:08.215Z,966.8900
2022-09-07T08:52:10.389Z,966.8900
2022-09-07T08:53:12.462Z,966.8500
2022-09-07T08:54:14.593Z,966.8300
2022-09-07T08:55:16.799Z,966.8000
2022-09-07T08:56:16.846Z,966.7800
2022-09-07T08:57:22.094Z,966.7800
2022-09-07T08:58:45.338Z,966.8200
2022-09-07T08:59:23.463Z,966.8200
2022-09-07T09:00:25.648Z,966.8500
2022-09-07T09:01:31.312Z,966.8500
2022-09-07T09:02:28.896Z,966.8500
2022-09-07T09:03:30.812Z,966.8500
2022-09-07T09:04:33.226Z,966.8200
2022-09-07T09:05:34.521Z,966.8000
2022-09-07T09:06:36.699Z,966.8200
2022-09-07T09:07:38.724Z,966.8000
2022-09-07T09:08:40.971Z,966.8000
2022-09-07T09:09:43.187Z,966.8000
2022-09-07T09:10:45.357Z,966.7800
2022-09-07T09:11:47.580Z,966.7400
2022-09-07T09:12:49.778Z,966.7400
2022-09-07T09:13:52.038Z,966.7000
2022-09-07T09:14:54.197Z,966.6800
2022-09-07T09:15:54.387Z,966.6800
2022-09-07T09:16:56.498Z,966.6600
2022-09-07T09:17:58.665Z,966.6400
2022-09-07T09:19:00.875Z,966.6200
2022-09-07T09:20:03.022Z,966.6000
2022-09-07T09:21:05.177Z,966.5800
2022-09-07T09:22:07.366Z,966.5400
2022-09-07T09:23:09.497Z,966.5200
2022-09-07T09:24:11.659Z,966.5200
2022-09-07T09:25:13.811Z,966.5000
2022-09-07T09:26:15.981Z,966.5000
2022-09-07T09:27:18.145Z,966.5200
2022-09-07T09:28:20.305Z,966.5200
2022-09-07T09:29:22.518Z,966.4800
2022-09-07T09:30:24.678Z,966.5000
2022-09-07T09:31:26.942Z,966.5000
2022-09-07T09:32:29.116Z,966.5000
2022-09-07T09:33:31.356Z,966.5000
2022-09-07T09:34:35.215Z,966.5000
2022-09-07T09:35:35.773Z,966.5000
2022-09-07T09:36:38.017Z,966.4800
2022-09-07T09:37:38.122Z,966.5000
2022-09-07T09:38:40.319Z,966.5000
2022-09-07T09:39:42.660Z,966.4800
2022-09-07T09:40:44.852Z,966.4800
2022-09-07T09:41:47.078Z,966.4800
2022-09-07T09:42:49.335Z,966.4800
2022-09-07T09:43:51.588Z,966.4600
2022-09-07T09:44:53.905Z,966.4800
2022-09-07T09:47:58.492Z,966.4400
2022-09-07T09:49:00.684Z,966.4400
2022-09-07T09:50:02.971Z,966.4200
2022-09-07T09:53:09.625Z,966.3300
2022-09-07T09:54:11.834Z,966.3300
2022-09-07T09:56:16.216Z,966.2700
2022-09-07T09:57:18.376Z,966.2900
2022-09-07T10:00:29.282Z,966.1700
2022-09-07T10:01:26.938Z,966.1500
2022-09-07T10:04:31.522Z,966.0900
2022-09-07T10:05:33.718Z,966.0500
2022-09-07T10:06:35.901Z,966.0500
2022-09-07T10:07:38.153Z,966.0300
2022-09-07T10:08:40.420Z,966.0100
2022-09-07T10:09:42.714Z,965.9900
2022-09-07T10:10:43.827Z,965.9700
2022-09-07T10:12:45.204Z,965.9500
2022-09-07T10:13:47.389Z,965.9500
2022-09-07T10:14:49.674Z,965.9300
2022-09-07T10:15:52.034Z,965.9300
2022-09-07T10:16:54.205Z,965.9100
2022-09-07T10:17:56.471Z,965.9100
2022-09-07T10:18:58.710Z,965.9100
2022-09-07T10:20:00.981Z,965.8900
2022-09-07T10:21:03.232Z,965.8800
2022-09-07T10:22:03.340Z,965.8400
2022-09-07T10:23:05.550Z,965.8200
2022-09-07T10:24:07.807Z,965.8200
2022-09-07T10:25:10.028Z,965.8200
2022-09-07T10:26:12.329Z,965.8200
2022-09-07T10:27:14.540Z,965.7800
2022-09-07T10:28:16.801Z,965.7800
2022-09-07T10:29:19.074Z,965.7800
2022-09-07T10:30:21.315Z,965.7800
2022-09-07T10:31:23.557Z,965.8000
2022-09-07T10:32:23.595Z,965.7800
2022-09-07T10:33:25.806Z,965.7600
2022-09-07T10:34:28.011Z,965.7400
2022-09-07T10:35:30.185Z,965.7200
2022-09-07T10:36:32.458Z,965.6800
2022-09-07T10:37:34.682Z,965.6800
2022-09-07T10:38:36.919Z,965.6200
2022-09-07T10:39:39.245Z,965.6000
2022-09-07T10:40:41.375Z,965.5800
2022-09-07T10:41:43.586Z,965.5600
2022-09-07T10:43:20.770Z,965.5400
2022-09-07T10:43:45.801Z,965.5000
2022-09-07T10:44:48.054Z,965.4400
2022-09-07T10:45:50.297Z,965.4400
2022-09-07T10:46:59.890Z,965.4400
2022-09-07T10:47:52.635Z,965.4100
2022-09-07T10:48:54.863Z,965.4200
2022-09-07T10:50:57.206Z,965.4100
2022-09-07T10:51:59.477Z,965.4100
2022-09-07T10:53:13.415Z,965.3900
2022-09-07T10:54:31.768Z,965.3500
2022-09-07T10:55:03.940Z,965.3500
2022-09-07T10:56:06.126Z,965.3500
2022-09-07T10:57:08.338Z,965.3300
2022-09-07T10:58:10.549Z,965.2900
2022-09-07T10:59:12.664Z,965.2900
2022-09-07T11:00:14.870Z,965.2900
2022-09-07T11:01:17.128Z,965.2900
2022-09-07T11:02:19.400Z,965.3100
2022-09-07T11:03:25.283Z,965.2900
2022-09-07T11:04:23.785Z,965.2900
2022-09-07T11:05:31.075Z,965.2900
2022-09-07T11:06:26.132Z,965.3100
2022-09-07T11:07:28.419Z,965.2900
2022-09-07T11:08:31.077Z,965.2700
2022-09-07T11:09:32.863Z,965.2500
2022-09-07T11:10:35.123Z,965.2500
2022-09-07T11:12:39.496Z,965.2300
2022-09-07T11:14:02.139Z,965.2100
2022-09-07T11:14:43.899Z,965.2300
2022-09-07T11:15:46.123Z,965.1900
2022-09-07T11:16:51.745Z,965.1900
2022-09-07T11:17:52.969Z,965.1500
2022-09-07T11:18:52.972Z,965.1100
2022-09-07T11:19:54.847Z,965.0900
2022-09-07T11:20:57.062Z,965.0500
2022-09-07T11:21:59.220Z,965.0500
2022-09-07T11:22:59.282Z,965.0500
2022-09-07T11:24:01.476Z,965.0500
2022-09-07T11:26:05.936Z,965.0500
2022-09-07T11:27:08.143Z,965.0700
2022-09-07T11:28:10.391Z,965.0900
2022-09-07T11:30:14.869Z,965.1300
2022-09-07T11:31:17.216Z,965.1300
2022-09-07T11:32:19.287Z,965.1100
2022-09-07T11:33:21.535Z,965.1100
2022-09-07T11:34:24.372Z,965.1300
2022-09-07T11:35:23.835Z,965.0900
2022-09-07T11:36:26.111Z,965.0700
2022-09-07T11:37:28.292Z,965.0700
2022-09-07T11:38:30.595Z,965.0300
2022-09-07T11:39:32.768Z,965.0200
2022-09-07T11:40:34.964Z,965.0000
2022-09-07T11:41:37.172Z,964.9800
2022-09-07T11:42:43.358Z,965.0000
2022-09-07T11:43:41.629Z,964.9800
2022-09-07T11:44:43.849Z,965.0000
2022-09-07T11:45:46.070Z,964.9800
2022-09-07T11:46:48.284Z,964.9800
2022-09-07T11:47:50.504Z,964.9600
2022-09-07T11:48:50.594Z,964.9600
2022-09-07T11:49:57.199Z,964.9600
2022-09-07T11:50:55.044Z,964.9400
2022-09-07T11:51:57.267Z,964.9400
2022-09-07T11:52:59.508Z,964.9400
2022-09-07T11:54:01.750Z,964.9400
2022-09-07T11:55:03.933Z,964.9000
2022-09-07T11:56:06.134Z,964.9000
2022-09-07T11:57:08.363Z,964.8800
2022-09-07T11:58:10.586Z,964.8600
2022-09-07T11:59:12.824Z,964.8800
2022-09-07T12:00:15.094Z,964.8600
2022-09-07T12:01:15.131Z,964.8400
2022-09-07T12:02:17.369Z,964.8200
2022-09-07T12:03:22.588Z,964.7800
2022-09-07T12:04:21.782Z,964.8000
2022-09-07T12:05:23.969Z,964.7800
2022-09-07T12:06:26.211Z,964.7400
2022-09-07T12:07:28.458Z,964.7200
2022-09-07T12:08:30.950Z,964.7400
2022-09-07T12:09:33.002Z,964.7400
2022-09-07T12:10:35.227Z,964.7600
2022-09-07T12:11:37.490Z,964.7400
2022-09-07T12:12:37.615Z,964.7400
2022-09-07T12:13:39.857Z,964.7400
2022-09-07T12:14:42.147Z,964.7200
2022-09-07T12:15:44.510Z,964.7000
2022-09-07T12:16:46.649Z,964.7000
2022-09-07T12:17:48.909Z,964.6800
2022-09-07T12:18:51.172Z,964.6800
2022-09-07T12:19:53.394Z,964.6800
2022-09-07T12:20:55.580Z,964.6600
2022-09-07T12:21:55.683Z,964.6200
2022-09-07T12:23:02.191Z,964.6000
2022-09-07T12:24:00.196Z,964.6000
2022-09-07T12:25:02.468Z,964.5800
2022-09-07T12:26:04.701Z,964.5600
2022-09-07T12:27:06.960Z,964.5600
2022-09-07T12:28:09.251Z,964.5500
2022-09-07T12:29:11.487Z,964.5500
2022-09-07T12:30:13.804Z,964.5600
2022-09-07T12:31:13.895Z,964.5600
2022-09-07T12:33:18.413Z,964.5300
2022-09-07T12:34:20.638Z,964.5000
2022-09-07T12:35:22.923Z,964.5300
2022-09-07T12:36:25.190Z,964.4800
2022-09-07T12:37:27.433Z,964.3900
2022-09-07T12:38:29.657Z,964.3300
2022-09-07T12:39:31.869Z,964.3100
2022-09-07T12:40:34.073Z,964.3100
2022-09-07T12:41:34.132Z,964.2900
2022-09-07T12:42:37.249Z,964.2900
2022-09-07T12:43:38.613Z,964.2900
2022-09-07T12:44:40.852Z,964.3100
2022-09-07T12:45:43.168Z,964.3100
2022-09-07T12:46:46.723Z,964.3300
2022-09-07T12:47:49.231Z,964.3300